Time;durP1;ratioP1;P1;durP2;ratioP2;P2;SDS_P1;SDS_P2;PMS_P1;PMS_P2;Temp;Humidity;BMP_temperature;BMP_pressure;BME280_temperature;BME280_humidity;BME280_pressure;Samples;Min_cycle;Max_cycle;Signal;HPM_P1;HPM_P2
2021/12/01 00:00:54;;;;;;;66.03;16.58;;;9.20;99.90;;;;;;5114357;28;20044;-73
2021/12/01 00:03:21;;;;;;;72.47;18.35;;;9.20;99.90;;;;;;5079325;28;20148;-73
2021/12/01 00:05:47;;;;;;;;;;;9.20;99.90;;;;;;5096288;28;20430;-73
2021/12/01 00:08:13;;;;;;;65.40;18.37;;;9.20;99.90;;;;;;5114232;28;20087;-73
2021/12/01 00:10:40;;;;;;;65.85;20.17;;;9.20;99.90;;;;;;5114109;28;20296;-72
2021/12/01 00:13:09;;;;;;;66.32;18.45;;;9.20;99.90;;;;;;5114043;28;20428;-72
2021/12/01 00:15:35;;;;;;;67.70;20.30;;;9.40;99.90;;;;;;5114094;28;20126;-72
2021/12/01 00:18:01;;;;;;;72.77;20.60;;;9.20;99.90;;;;;;5114381;28;20039;-73
2021/12/01 00:20:27;;;;;;;74.18;20.30;;;9.20;99.90;;;;;;5095156;28;20043;-72
2021/12/01 00:22:53;;;;;;;74.07;20.42;;;9.20;99.90;;;;;;5114012;28;20172;-72
2021/12/01 00:25:24;;;;;;;79.90;22.10;;;9.20;99.90;;;;;;5113543;28;20131;-73
2021/12/01 00:27:51;;;;;;;72.47;23.92;;;9.20;99.90;;;;;;5079246;28;20047;-72
2021/12/01 00:30:18;;;;;;;78.82;24.77;;;9.20;99.90;;;;;;5114144;28;20430;-73
2021/12/01 00:32:44;;;;;;;81.50;27.73;;;9.20;99.90;;;;;;5100326;28;20043;-73
2021/12/01 00:35:10;;;;;;;77.68;27.25;;;9.30;99.90;;;;;;5103617;28;20068;-74
2021/12/01 00:37:37;;;;;;;71.03;22.30;;;9.20;99.90;;;;;;5114381;28;20036;-73
2021/12/01 00:40:04;;;;;;;;;;;9.20;99.90;;;;;;5113819;28;20140;-72
2021/12/01 00:42:30;;;;;;;70.22;21.92;;;9.20;99.90;;;;;;5130311;27;19941;-72
2021/12/01 00:44:59;;;;;;;75.20;21.70;;;9.20;99.90;;;;;;5113660;28;20044;-72
2021/12/01 00:47:33;;;;;;;77.43;23.95;;;9.30;99.90;;;;;;5095427;28;20047;-72
2021/12/01 00:49:59;;;;;;;72.63;24.42;;;9.20;99.90;;;;;;5095200;28;20486;-72
2021/12/01 00:52:26;;;;;;;80.05;24.15;;;9.20;99.90;;;;;;5094537;28;20076;-72
2021/12/01 00:54:52;;;;;;;73.93;23.75;;;9.20;99.90;;;;;;5095920;28;20051;-73
2021/12/01 00:57:18;;;;;;;75.38;22.73;;;9.30;99.90;;;;;;5094353;28;20135;-72
2021/12/01 00:59:43;;;;;;;71.25;23.48;;;9.20;99.90;;;;;;5113711;28;20040;-71
2021/12/01 01:02:09;;;;;;;78.38;28.35;;;9.20;99.90;;;;;;5112855;28;20127;-71
2021/12/01 01:04:35;;;;;;;69.43;22.85;;;9.30;99.90;;;;;;5112329;28;20046;-71
2021/12/01 01:07:00;;;;;;;68.25;20.65;;;9.30;99.90;;;;;;5112674;28;20047;-72
2021/12/01 01:09:31;;;;;;;75.32;23.52;;;9.20;99.90;;;;;;5094416;28;20086;-72
2021/12/01 01:17:38;;;;;;;77.95;21.60;;;9.30;99.90;;;;;;5112523;28;20047;-72
2021/12/01 01:20:10;;;;;;;76.68;22.02;;;9.30;99.90;;;;;;5112894;28;20172;-73
2021/12/01 01:22:37;;;;;;;77.47;21.08;;;9.30;99.90;;;;;;5113082;28;20526;-72
2021/12/01 01:25:04;;;;;;;71.35;18.60;;;9.30;99.90;;;;;;5113186;28;20099;-72
2021/12/01 01:27:30;;;;;;;65.32;17.73;;;9.30;99.90;;;;;;5112454;28;20044;-72
2021/12/01 01:29:56;;;;;;;54.33;15.75;;;9.30;99.90;;;;;;5112464;28;20402;-72
2021/12/01 01:32:21;;;;;;;50.88;15.27;;;9.30;99.90;;;;;;5112813;28;20048;-71
2021/12/01 01:34:47;;;;;;;45.25;13.13;;;9.30;99.90;;;;;;5112529;28;20439;-71
2021/12/01 01:37:13;;;;;;;51.95;15.40;;;9.40;99.90;;;;;;5112942;28;20050;-73
2021/12/01 01:39:39;;;;;;;37.25;11.52;;;9.40;99.90;;;;;;5112584;28;20047;-71
2021/12/01 01:42:05;;;;;;;45.28;12.95;;;9.40;99.90;;;;;;5094459;28;20039;-70
2021/12/01 01:44:31;;;;;;;44.00;12.98;;;9.40;99.90;;;;;;5112610;28;20050;-71
2021/12/01 01:46:58;;;;;;;45.28;14.30;;;9.50;99.90;;;;;;5094545;28;20043;-72
2021/12/01 01:49:40;;;;;;;43.60;12.30;;;9.50;99.90;;;;;;5112121;28;20485;-71
2021/12/01 01:52:06;;;;;;;45.00;11.80;;;9.40;99.90;;;;;;5097415;28;20070;-71
2021/12/01 01:54:32;;;;;;;35.90;10.80;;;9.50;99.90;;;;;;5112813;28;20055;-72
2021/12/01 01:56:58;;;;;;;40.22;12.27;;;9.50;99.90;;;;;;5112480;28;20505;-72
2021/12/01 01:59:24;;;;;;;35.95;10.73;;;9.50;99.90;;;;;;5095157;28;20129;-72
2021/12/01 02:02:00;;;;;;;46.63;11.68;;;9.50;99.90;;;;;;5116637;28;20036;-72
2021/12/01 02:04:27;;;;;;;49.17;11.23;;;9.50;99.90;;;;;;5098580;28;20097;-72
2021/12/01 02:06:53;;;;;;;44.22;13.02;;;9.50;99.90;;;;;;5098261;28;20285;-72
2021/12/01 02:09:22;;;;;;;40.30;11.18;;;9.10;99.90;;;;;;5116057;28;20073;-73
2021/12/01 02:11:53;;;;;;;44.72;13.10;;;9.50;99.90;;;;;;5115821;28;20044;-72
2021/12/01 02:14:18;;;;;;;47.03;10.43;;;9.50;99.90;;;;;;5116777;28;20170;-73
2021/12/01 02:16:45;;;;;;;41.55;11.63;;;9.50;99.90;;;;;;5116169;28;20124;-73
2021/12/01 02:19:11;;;;;;;42.15;10.18;;;9.50;99.90;;;;;;5116037;28;20040;-73
2021/12/01 02:21:36;;;;;;;38.85;10.45;;;9.50;99.90;;;;;;5116442;28;20439;-72
2021/12/01 02:24:05;;;;;;;35.00;9.50;;;9.60;99.90;;;;;;5115923;28;20047;-72
2021/12/01 02:26:35;;;;;;;27.90;8.30;;;9.60;99.90;;;;;;5115898;28;20043;-72
2021/12/01 02:29:04;;;;;;;33.33;8.75;;;9.70;99.90;;;;;;5115704;28;20089;-72
2021/12/01 02:31:33;;;;;;;39.38;9.55;;;9.60;99.90;;;;;;5115762;28;20047;-72
2021/12/01 02:34:01;;;;;;;40.70;10.43;;;9.60;99.90;;;;;;5116350;28;20039;-72
2021/12/01 02:36:27;;;;;;;;;;;9.60;99.90;;;;;;5115921;28;20126;-72
2021/12/01 02:38:53;;;;;;;36.67;9.40;;;9.70;99.90;;;;;;5115634;28;19919;-72
2021/12/01 02:41:29;;;;;;;36.08;9.43;;;9.70;99.90;;;;;;5115914;28;20089;-72
2021/12/01 02:43:56;;;;;;;29.02;7.95;;;9.70;99.90;;;;;;5097374;28;20054;-73
2021/12/01 02:46:22;;;;;;;32.13;8.13;;;9.70;99.90;;;;;;5115393;28;20050;-73
2021/12/01 02:48:49;;;;;;;32.95;7.20;;;9.70;99.90;;;;;;5115355;28;20550;-73
2021/12/01 02:51:16;;;;;;;35.13;8.75;;;9.80;99.90;;;;;;5097261;28;20378;-73
2021/12/01 02:53:41;;;;;;;26.77;7.80;;;9.70;99.90;;;;;;5115209;28;20070;-73
2021/12/01 02:56:08;;;;;;;25.15;6.25;;;9.60;99.90;;;;;;5097494;28;20472;-72
2021/12/01 02:58:42;;;;;;;12.40;3.55;;;9.70;99.90;;;;;;5097180;28;20103;-73
2021/12/01 03:01:12;;;;;;;10.55;2.53;;;9.70;99.90;;;;;;5097049;28;20157;-75
2021/12/01 03:03:39;;;;;;;13.27;3.08;;;9.70;99.90;;;;;;5114878;28;20052;-73
2021/12/01 03:06:07;;;;;;;9.20;2.90;;;9.80;99.90;;;;;;5097396;28;20047;-73
2021/12/01 03:08:34;;;;;;;7.38;2.22;;;9.70;99.90;;;;;;5096784;28;20039;-72
2021/12/01 03:11:00;;;;;;;8.57;2.10;;;9.70;99.90;;;;;;5097536;28;20048;-72
2021/12/01 03:13:26;;;;;;;11.80;1.77;;;9.70;99.90;;;;;;5114760;28;20051;-73
2021/12/01 03:15:53;;;;;;;10.10;2.30;;;9.60;99.90;;;;;;5097909;28;20519;-72
2021/12/01 03:18:19;;;;;;;11.57;3.03;;;9.60;99.90;;;;;;5115441;28;20052;-73
2021/12/01 03:20:46;;;;;;;10.73;2.85;;;9.60;99.90;;;;;;5063274;28;20043;-73
2021/12/01 03:23:13;;;;;;;7.88;2.95;;;9.60;99.90;;;;;;5115432;28;20043;-73
2021/12/01 03:25:38;;;;;;;6.83;2.07;;;9.60;99.90;;;;;;5097374;28;20043;-73
2021/12/01 03:28:06;;;;;;;10.38;3.30;;;9.60;99.90;;;;;;5098567;28;20292;-73
2021/12/01 03:30:34;;;;;;;9.18;2.80;;;9.60;99.90;;;;;;5122377;28;20051;-73
2021/12/01 03:33:01;;;;;;;9.57;2.53;;;9.70;99.90;;;;;;5122314;28;20052;-73
2021/12/01 03:35:27;;;;;;;13.00;2.97;;;9.60;99.90;;;;;;5117239;28;20135;-73
2021/12/01 03:37:52;;;;;;;12.05;3.40;;;9.70;99.90;;;;;;5114680;28;20046;-72
2021/12/01 03:40:18;;;;;;;10.10;2.90;;;9.60;99.90;;;;;;5114803;28;20051;-72
2021/12/01 03:42:44;;;;;;;9.82;3.25;;;9.70;99.90;;;;;;5114535;28;20103;-73
2021/12/01 03:45:12;;;;;;;10.88;2.78;;;9.60;99.90;;;;;;5096480;28;20079;-73
2021/12/01 03:47:38;;;;;;;14.27;4.32;;;9.80;99.90;;;;;;5114275;28;20044;-73
2021/12/01 03:50:05;;;;;;;12.60;3.90;;;9.60;99.90;;;;;;5096178;28;20495;-73
2021/12/01 03:52:30;;;;;;;12.23;3.60;;;9.60;99.90;;;;;;5113535;28;20051;-73
2021/12/01 03:54:56;;;;;;;11.00;3.38;;;9.60;99.90;;;;;;5114267;28;20400;-73
2021/12/01 03:57:22;;;;;;;15.90;4.53;;;9.60;99.90;;;;;;5114257;28;20416;-74
2021/12/01 03:59:48;;;;;;;11.40;3.55;;;9.60;99.90;;;;;;5114928;28;20389;-74
2021/12/01 04:02:14;;;;;;;9.05;2.85;;;9.60;99.90;;;;;;5114870;28;20047;-73
2021/12/01 04:04:40;;;;;;;12.20;3.75;;;9.60;99.90;;;;;;5095877;28;20083;-73
2021/12/01 04:07:06;;;;;;;10.15;3.80;;;9.50;99.90;;;;;;5095991;28;20043;-74
2021/12/01 04:09:32;;;;;;;8.48;2.80;;;9.50;99.90;;;;;;5114506;28;20047;-74
2021/12/01 04:11:58;;;;;;;10.35;2.85;;;9.50;99.90;;;;;;5114024;28;20052;-74
2021/12/01 04:14:24;;;;;;;9.25;2.97;;;9.50;99.90;;;;;;5114173;28;20084;-74
2021/12/01 04:16:50;;;;;;;8.90;3.30;;;9.50;99.90;;;;;;5113773;28;20135;-73
2021/12/01 04:19:16;;;;;;;11.02;3.97;;;9.40;99.90;;;;;;5096101;28;20043;-72
2021/12/01 04:21:42;;;;;;;11.50;4.20;;;9.40;99.90;;;;;;5114027;28;20053;-74
2021/12/01 04:24:08;;;;;;;10.97;3.83;;;9.40;99.90;;;;;;5113930;28;20051;-73
2021/12/01 04:26:35;;;;;;;12.48;3.70;;;9.50;99.90;;;;;;5095765;28;20112;-75
2021/12/01 04:29:03;;;;;;;10.55;2.85;;;9.40;99.90;;;;;;5113805;28;20173;-72
2021/12/01 04:31:33;;;;;;;7.75;2.50;;;9.40;99.90;;;;;;5114928;28;20039;-75
2021/12/01 04:34:00;;;;;;;9.63;3.55;;;9.40;99.90;;;;;;5114164;28;20165;-72
2021/12/01 04:36:28;;;;;;;;;;;9.40;99.90;;;;;;5096301;28;20048;-74
2021/12/01 04:38:54;;;;;;;9.70;2.85;;;9.30;99.90;;;;;;5096160;28;20447;-72
2021/12/01 04:41:21;;;;;;;7.88;3.00;;;9.30;99.90;;;;;;5095597;28;20131;-74
2021/12/01 04:43:47;;;;;;;10.77;4.35;;;9.30;99.90;;;;;;5095729;28;20067;-74
2021/12/01 04:46:17;;;;;;;8.10;2.42;;;9.20;99.90;;;;;;5095820;28;20089;-74
2021/12/01 04:48:43;;;;;;;7.75;2.80;;;9.20;99.90;;;;;;5078257;28;20144;-73
2021/12/01 04:51:09;;;;;;;7.55;2.50;;;9.20;99.90;;;;;;5113807;28;20082;-74
2021/12/01 04:53:35;;;;;;;8.85;2.20;;;9.20;99.90;;;;;;5113688;28;20067;-75
2021/12/01 04:56:01;;;;;;;8.27;2.77;;;9.20;99.90;;;;;;5095420;28;20112;-73
2021/12/01 04:58:28;;;;;;;7.78;3.00;;;9.30;99.90;;;;;;5096369;28;20109;-74
2021/12/01 05:00:56;;;;;;;14.65;5.38;;;9.20;99.90;;;;;;5095680;28;20043;-73
2021/12/01 05:03:22;;;;;;;7.32;2.53;;;9.10;99.90;;;;;;5095398;28;20048;-75
2021/12/01 05:05:48;;;;;;;8.73;2.50;;;9.40;99.90;;;;;;5113460;28;20126;-75
2021/12/01 05:08:13;;;;;;;10.35;3.53;;;9.10;99.90;;;;;;5079083;28;20053;-72
2021/12/01 05:10:39;;;;;;;7.80;2.40;;;9.10;99.90;;;;;;5095399;28;20043;-75
2021/12/01 05:13:05;;;;;;;8.70;3.10;;;9.10;99.90;;;;;;5078924;28;20039;-74
2021/12/01 05:15:30;;;;;;;8.35;3.08;;;9.00;99.90;;;;;;5095629;28;20073;-73
2021/12/01 05:17:56;;;;;;;6.88;2.03;;;9.00;99.90;;;;;;5095895;28;20422;-75
2021/12/01 05:20:22;;;;;;;7.93;3.00;;;8.90;99.90;;;;;;5113513;28;20044;-74
2021/12/01 05:22:47;;;;;;;7.82;2.85;;;9.00;99.90;;;;;;5112873;28;20047;-74
2021/12/01 05:25:13;;;;;;;11.27;2.70;;;9.00;99.90;;;;;;5095228;28;20058;-74
2021/12/01 05:27:39;;;;;;;7.82;2.10;;;9.00;99.90;;;;;;5113031;28;20043;-73
2021/12/01 05:30:05;;;;;;;7.00;2.10;;;8.90;99.90;;;;;;5095074;28;20039;-73
2021/12/01 05:32:32;;;;;;;7.57;2.70;;;8.90;99.90;;;;;;5094861;28;20051;-75
2021/12/01 05:34:58;;;;;;;8.25;1.80;;;8.90;99.90;;;;;;5114833;28;20632;-73
2021/12/01 05:37:24;;;;;;;7.57;2.30;;;8.90;99.90;;;;;;5117824;28;20120;-74
2021/12/01 05:39:50;;;;;;;7.05;2.10;;;8.90;99.90;;;;;;5117731;28;20728;-74
2021/12/01 05:42:16;;;;;;;8.45;3.20;;;8.70;99.90;;;;;;5082350;28;20119;-73
2021/12/01 05:44:44;;;;;;;9.55;2.92;;;8.80;99.90;;;;;;5117570;28;20055;-73
2021/12/01 05:47:11;;;;;;;6.15;1.98;;;8.80;99.90;;;;;;5099735;28;20463;-73
2021/12/01 05:49:44;;;;;;;7.47;2.33;;;8.80;99.90;;;;;;5117141;28;20040;-73
2021/12/01 05:52:15;;;;;;;6.75;2.22;;;8.80;99.90;;;;;;5117649;28;20059;-74
2021/12/01 05:54:43;;;;;;;7.25;2.10;;;8.70;99.90;;;;;;5117591;28;20064;-74
2021/12/01 05:57:10;;;;;;;7.35;2.22;;;8.70;99.90;;;;;;5116622;28;20415;-73
2021/12/01 05:59:35;;;;;;;6.23;2.17;;;8.70;99.90;;;;;;5116898;28;20047;-73
2021/12/01 06:02:01;;;;;;;7.03;2.28;;;8.70;99.90;;;;;;5116794;28;20292;-73
2021/12/01 06:04:28;;;;;;;5.13;1.88;;;8.70;99.90;;;;;;5117273;28;20061;-73
2021/12/01 06:06:54;;;;;;;7.10;2.30;;;8.60;99.90;;;;;;5118309;28;20066;-75
2021/12/01 06:09:20;;;;;;;4.07;1.50;;;8.60;99.90;;;;;;5117834;28;20055;-75
2021/12/01 06:11:47;;;;;;;5.43;1.90;;;8.60;99.90;;;;;;5117844;28;20044;-76
2021/12/01 06:14:15;;;;;;;5.63;1.60;;;8.60;99.90;;;;;;5122214;28;20155;-74
2021/12/01 06:16:42;;;;;;;9.45;2.42;;;8.60;99.90;;;;;;5119971;28;20097;-74
2021/12/01 06:19:08;;;;;;;5.60;2.17;;;8.50;99.90;;;;;;5101401;28;20043;-75
2021/12/01 06:21:34;;;;;;;6.57;2.33;;;8.60;99.90;;;;;;5122776;28;20079;-74
2021/12/01 06:24:00;;;;;;;9.88;2.70;;;8.60;99.90;;;;;;5102799;28;20054;-74
2021/12/01 06:26:26;;;;;;;5.82;2.40;;;8.50;99.90;;;;;;5103746;28;20047;-73
2021/12/01 06:28:52;;;;;;;6.88;2.13;;;8.50;99.90;;;;;;5101627;28;20051;-72
2021/12/01 06:31:17;;;;;;;6.75;2.40;;;8.30;99.90;;;;;;5119257;28;20054;-74
2021/12/01 06:33:43;;;;;;;7.05;2.20;;;8.40;99.90;;;;;;5083166;28;20130;-73
2021/12/01 06:36:09;;;;;;;6.93;2.00;;;8.50;99.90;;;;;;5099465;28;20087;-73
2021/12/01 06:38:35;;;;;;;5.13;1.80;;;8.50;99.90;;;;;;5116579;28;20040;-73
2021/12/01 06:41:01;;;;;;;7.57;2.45;;;8.50;99.90;;;;;;5116566;28;20123;-73
2021/12/01 06:43:26;;;;;;;5.90;2.10;;;8.50;99.90;;;;;;5115706;28;20051;-72
2021/12/01 06:45:52;;;;;;;7.50;1.90;;;8.50;99.90;;;;;;5115053;28;20050;-73
2021/12/01 06:48:18;;;;;;;6.57;2.47;;;8.50;99.90;;;;;;5097335;28;20043;-73
2021/12/01 06:50:44;;;;;;;5.72;2.17;;;8.50;99.90;;;;;;5097867;28;20083;-73
2021/12/01 06:53:10;;;;;;;5.43;1.88;;;8.40;99.90;;;;;;5114761;28;20482;-74
2021/12/01 06:55:35;;;;;;;6.38;2.65;;;8.50;99.90;;;;;;5114674;28;20122;-73
2021/12/01 06:58:01;;;;;;;6.75;2.40;;;8.50;99.90;;;;;;5114956;28;20036;-74
2021/12/01 07:00:27;;;;;;;7.75;2.40;;;8.50;99.90;;;;;;5096872;28;20536;-75
2021/12/01 07:02:53;;;;;;;5.88;2.10;;;8.50;99.90;;;;;;5096380;28;20044;-76
2021/12/01 07:05:18;;;;;;;5.43;1.98;;;8.50;99.90;;;;;;5115297;28;20318;-74
2021/12/01 07:07:44;;;;;;;4.82;1.33;;;8.40;99.90;;;;;;5114856;28;20051;-74
2021/12/01 07:10:12;;;;;;;7.25;2.05;;;8.40;99.90;;;;;;5096361;28;20044;-74
2021/12/01 07:12:39;;;;;;;5.75;1.45;;;8.40;99.90;;;;;;5114908;28;20054;-75
2021/12/01 07:15:09;;;;;;;6.13;2.13;;;8.40;99.90;;;;;;5097243;28;20116;-74
2021/12/01 07:17:35;;;;;;;6.32;1.98;;;8.40;99.90;;;;;;5115362;28;20039;-74
2021/12/01 07:20:02;;;;;;;7.25;2.20;;;8.40;99.90;;;;;;5115652;28;20035;-73
2021/12/01 07:22:27;;;;;;;9.35;1.88;;;8.40;99.90;;;;;;5097203;28;20134;-72
2021/12/01 07:24:53;;;;;;;8.40;1.80;;;8.40;99.90;;;;;;5115198;28;20486;-74
2021/12/01 07:27:19;;;;;;;6.15;2.50;;;8.40;99.90;;;;;;5115567;28;20045;-73
2021/12/01 07:29:45;;;;;;;7.13;1.77;;;8.40;99.90;;;;;;5115930;28;20094;-74
2021/12/01 07:32:11;;;;;;;5.80;2.00;;;8.40;99.90;;;;;;5096806;28;20503;-74
2021/12/01 07:34:42;;;;;;;5.18;1.80;;;8.50;99.90;;;;;;5115202;28;20197;-75
2021/12/01 07:37:12;;;;;;;6.55;1.92;;;8.40;99.90;;;;;;5097257;28;20048;-76
2021/12/01 07:39:38;;;;;;;6.88;1.63;;;8.50;99.90;;;;;;5096754;28;20065;-74
2021/12/01 07:42:05;;;;;;;5.10;1.85;;;8.40;99.90;;;;;;5117989;28;20119;-73
2021/12/01 07:44:31;;;;;;;4.55;1.10;;;8.50;99.90;;;;;;5101643;28;20163;-73
2021/12/01 07:46:57;;;;;;;4.90;1.40;;;8.40;99.90;;;;;;5122410;28;20055;-74
2021/12/01 07:49:23;;;;;;;6.80;2.53;;;8.50;99.90;;;;;;5117414;28;20059;-73
2021/12/01 07:51:49;;;;;;;5.30;1.60;;;8.40;99.90;;;;;;5106268;28;20043;-74
2021/12/01 07:54:15;;;;;;;5.28;1.77;;;8.40;99.90;;;;;;5087902;28;1128936;-73
2021/12/01 07:56:41;;;;;;;5.25;2.03;;;8.50;99.90;;;;;;5110174;28;20067;-75
2021/12/01 07:59:07;;;;;;;5.30;1.75;;;8.50;99.90;;;;;;5108391;28;20142;-73
2021/12/01 08:01:33;;;;;;;8.38;2.42;;;8.40;99.90;;;;;;5108014;28;20043;-74
2021/12/01 08:03:58;;;;;;;7.72;2.17;;;8.50;99.90;;;;;;5107088;28;20563;-73
2021/12/01 08:06:26;;;;;;;7.68;2.53;;;8.40;99.90;;;;;;5126582;28;20099;-74
2021/12/01 08:08:51;;;;;;;8.00;2.58;;;8.50;99.90;;;;;;5108744;28;20044;-74
2021/12/01 08:11:17;;;;;;;9.55;2.45;;;8.50;99.90;;;;;;5127741;28;20051;-73
2021/12/01 08:13:43;;;;;;;7.63;2.75;;;8.50;99.90;;;;;;5127470;28;20081;-73
2021/12/01 08:16:09;;;;;;;11.20;3.67;;;8.50;99.90;;;;;;5128612;28;20066;-74
2021/12/01 08:18:35;;;;;;;10.77;4.03;;;8.50;99.90;;;;;;5128879;28;20051;-73
2021/12/01 08:21:00;;;;;;;7.15;2.42;;;8.60;99.90;;;;;;5109590;28;20126;-72
2021/12/01 08:23:26;;;;;;;9.05;2.80;;;8.80;99.90;;;;;;5091446;28;20043;-73
2021/12/01 08:25:52;;;;;;;11.88;3.20;;;8.60;99.90;;;;;;5126844;28;20099;-73
2021/12/01 08:28:17;;;;;;;10.48;3.80;;;8.60;99.90;;;;;;5127388;28;20057;-73
2021/12/01 08:30:43;;;;;;;10.85;3.97;;;8.70;99.90;;;;;;5127036;28;20039;-73
2021/12/01 08:33:09;;;;;;;9.82;3.72;;;8.70;99.90;;;;;;5091983;28;20043;-74
2021/12/01 08:35:34;;;;;;;8.85;3.75;;;8.80;99.90;;;;;;5125751;28;20044;-74
2021/12/01 08:38:00;;;;;;;12.45;4.90;;;8.80;99.90;;;;;;5122280;28;20040;-73
2021/12/01 08:40:27;;;;;;;12.00;4.15;;;8.70;99.90;;;;;;5116250;28;20158;-74
2021/12/01 08:42:53;;;;;;;10.80;3.78;;;8.80;99.90;;;;;;5097250;28;20517;-73
2021/12/01 08:45:19;;;;;;;12.43;5.00;;;8.70;99.90;;;;;;5097285;28;20048;-72
2021/12/01 08:47:45;;;;;;;9.57;3.60;;;8.70;99.90;;;;;;5115084;28;20040;-75
2021/12/01 08:50:11;;;;;;;10.75;3.47;;;8.70;99.90;;;;;;5114180;28;20075;-73
2021/12/01 08:52:38;;;;;;;14.95;5.05;;;8.80;99.90;;;;;;5096727;28;20077;-73
2021/12/01 08:55:05;;;;;;;;;;;8.80;99.90;;;;;;5097553;28;20051;-72
2021/12/01 08:57:31;;;;;;;12.88;5.13;;;8.80;99.90;;;;;;5114285;28;20003;-73
2021/12/01 08:59:56;;;;;;;13.15;4.60;;;8.80;99.90;;;;;;5114272;28;20081;-73
2021/12/01 09:02:22;;;;;;;7.60;2.00;;;8.80;99.90;;;;;;5114186;28;20079;-73
2021/12/01 09:04:51;;;;;;;9.93;2.65;;;8.80;99.90;;;;;;5114737;28;20040;-74
2021/12/01 09:07:20;;;;;;;13.30;2.60;;;8.80;99.90;;;;;;5114393;28;20051;-73
2021/12/01 09:09:46;;;;;;;9.98;1.80;;;8.80;99.90;;;;;;5114308;28;20100;-74
2021/12/01 09:12:14;;;;;;;11.93;2.20;;;8.80;99.90;;;;;;5095691;28;20441;-74
2021/12/01 09:14:41;;;;;;;8.77;1.45;;;8.70;99.90;;;;;;5116603;28;20039;-73
2021/12/01 09:17:09;;;;;;;10.48;1.38;;;8.70;99.90;;;;;;5115667;28;20087;-73
2021/12/01 09:19:35;;;;;;;12.48;2.40;;;8.70;99.90;;;;;;5117013;28;20051;-73
2021/12/01 09:22:01;;;;;;;11.20;1.58;;;8.70;99.90;;;;;;5118329;28;20035;-73
2021/12/01 09:24:27;;;;;;;17.23;2.42;;;8.70;99.90;;;;;;5116636;28;20040;-73
2021/12/01 09:26:53;;;;;;;16.17;2.00;;;8.70;99.90;;;;;;5114352;28;20061;-73
2021/12/01 09:29:19;;;;;;;11.30;1.37;;;8.70;99.90;;;;;;5113862;28;20039;-73
2021/12/01 09:31:45;;;;;;;16.20;1.85;;;8.70;99.90;;;;;;5114044;28;20373;-72
2021/12/01 09:34:11;;;;;;;14.90;1.48;;;8.80;99.90;;;;;;5113924;28;20043;-74
2021/12/01 09:36:37;;;;;;;13.10;0.90;;;8.80;99.90;;;;;;5095172;28;20054;-73
2021/12/01 09:39:03;;;;;;;10.52;1.20;;;8.80;99.90;;;;;;5095187;28;20122;-74
2021/12/01 09:41:29;;;;;;;12.23;1.77;;;8.90;99.90;;;;;;5113223;28;20075;-74
2021/12/01 09:43:55;;;;;;;14.25;0.98;;;8.80;99.90;;;;;;5113679;28;20483;-73
2021/12/01 09:46:22;;;;;;;10.10;1.10;;;8.80;99.90;;;;;;5078841;28;20468;-73
2021/12/01 09:48:48;;;;;;;;;;;8.80;99.90;;;;;;5114397;28;20047;-74
2021/12/01 09:51:16;;;;;;;16.95;1.25;;;8.80;99.90;;;;;;5095738;28;19942;-73
2021/12/01 09:53:44;;;;;;;10.10;0.77;;;8.70;99.90;;;;;;5113118;28;20090;-73
2021/12/01 09:56:10;;;;;;;13.93;0.73;;;8.60;99.90;;;;;;5113837;28;20047;-73
2021/12/01 09:58:37;;;;;;;10.63;0.70;;;8.70;99.90;;;;;;5095824;28;20085;-73
2021/12/01 10:01:07;;;;;;;11.52;0.90;;;8.70;99.90;;;;;;5114080;28;20056;-75
2021/12/01 10:03:33;;;;;;;13.27;1.15;;;8.70;99.90;;;;;;5113985;28;20044;-74
2021/12/01 10:06:11;;;;;;;7.40;0.50;;;8.70;99.90;;;;;;5114591;28;20131;-74
2021/12/01 10:08:45;;;;;;;8.25;0.52;;;8.70;99.90;;;;;;5079517;28;20051;-74
2021/12/01 10:11:17;;;;;;;7.03;0.75;;;8.70;99.90;;;;;;5095980;28;20410;-73
2021/12/01 10:13:48;;;;;;;12.77;0.55;;;8.70;99.90;;;;;;5113601;28;20115;-75
2021/12/01 10:16:15;;;;;;;8.57;0.60;;;8.70;99.90;;;;;;5096008;28;20085;-74
2021/12/01 10:18:54;;;;;;;10.05;0.75;;;8.70;99.90;;;;;;5114722;28;20430;-73
2021/12/01 10:21:29;;;;;;;11.38;0.95;;;8.70;99.90;;;;;;5115604;28;20046;-74
2021/12/01 10:23:57;;;;;;;6.63;0.52;;;8.70;99.90;;;;;;5082691;28;20386;-75
2021/12/01 10:26:27;;;;;;;15.07;0.77;;;8.70;99.90;;;;;;5117990;28;20039;-74
2021/12/01 10:28:58;;;;;;;9.20;1.13;;;8.70;99.90;;;;;;5117168;28;20048;-74
2021/12/01 10:31:35;;;;;;;11.95;1.33;;;8.70;99.90;;;;;;5117863;28;20085;-73
2021/12/01 10:34:19;;;;;;;10.30;0.65;;;8.70;99.90;;;;;;5117855;28;20132;-73
2021/12/01 10:36:50;;;;;;;9.27;1.50;;;8.70;99.90;;;;;;5117414;28;20042;-75
2021/12/01 10:39:17;;;;;;;12.50;0.88;;;8.70;99.90;;;;;;5118325;28;20058;-74
2021/12/01 10:41:43;;;;;;;17.27;1.02;;;8.80;99.90;;;;;;5098990;28;20050;-74
2021/12/01 10:44:09;;;;;;;11.52;1.38;;;8.80;99.90;;;;;;5100007;28;20055;-74
2021/12/01 10:46:53;;;;;;;23.92;2.47;;;8.70;99.90;;;;;;5100869;28;20047;-73
2021/12/01 10:49:33;;;;;;;16.88;0.70;;;8.70;99.90;;;;;;5083669;28;20052;-73
2021/12/01 10:51:59;;;;;;;13.27;0.60;;;8.80;99.90;;;;;;5118499;28;20087;-75
2021/12/01 10:54:26;;;;;;;12.27;0.50;;;8.80;99.90;;;;;;5118323;28;20065;-75
2021/12/01 10:57:21;;;;;;;13.95;0.68;;;8.80;99.90;;;;;;5083163;28;20047;-74
2021/12/01 10:59:49;;;;;;;9.07;0.93;;;8.80;99.90;;;;;;5099038;28;20439;-75
2021/12/01 11:02:16;;;;;;;13.15;0.70;;;8.80;99.90;;;;;;5065192;28;20131;-76
2021/12/01 11:04:43;;;;;;;14.38;0.85;;;8.90;99.90;;;;;;5082672;28;20101;-76
2021/12/01 11:07:28;;;;;;;;;;;8.90;99.90;;;;;;5099542;28;20082;-75
2021/12/01 11:10:13;;;;;;;13.43;0.70;;;9.00;99.90;;;;;;5118188;28;19946;-78
2021/12/01 11:12:39;;;;;;;11.35;1.05;;;9.00;99.90;;;;;;5099818;28;20047;-76
2021/12/01 11:15:34;;;;;;;15.33;0.80;;;9.10;99.90;;;;;;5098966;28;20371;-75
2021/12/01 11:18:02;;;;;;;17.38;1.23;;;9.00;99.90;;;;;;5099761;28;20301;-77
2021/12/01 11:20:35;;;;;;;13.88;0.90;;;9.00;99.90;;;;;;5099082;28;20047;-76
2021/12/01 11:23:18;;;;;;;12.50;1.55;;;9.00;99.90;;;;;;5118396;28;20051;-77
2021/12/01 11:25:56;;;;;;;17.55;0.90;;;9.00;99.90;;;;;;5117645;28;20047;-76
2021/12/01 11:28:27;;;;;;;16.55;1.20;;;9.10;99.90;;;;;;5116984;28;20048;-77
2021/12/01 11:30:57;;;;;;;17.88;1.40;;;9.10;99.90;;;;;;5100238;28;20047;-77
2021/12/01 11:33:24;;;;;;;15.82;1.25;;;9.10;99.90;;;;;;5098889;28;20047;-76
2021/12/01 11:35:59;;;;;;;22.02;2.03;;;9.10;99.90;;;;;;5117809;28;20373;-75
2021/12/01 11:38:25;;;;;;;13.88;1.10;;;9.10;99.90;;;;;;5117546;28;20048;-75
2021/12/01 11:40:52;;;;;;;18.63;2.07;;;9.10;99.90;;;;;;5099278;28;20050;-78
2021/12/01 11:43:21;;;;;;;15.60;1.30;;;9.10;99.90;;;;;;5117486;28;20505;-77
2021/12/01 11:45:47;;;;;;;16.85;1.35;;;9.10;99.90;;;;;;5099818;28;20483;-76
2021/12/01 11:48:16;;;;;;;22.45;1.45;;;9.10;99.90;;;;;;5117553;28;20100;-77
2021/12/01 11:50:54;;;;;;;16.42;1.70;;;9.00;99.90;;;;;;5118568;28;20044;-77
2021/12/01 11:53:26;;;;;;;16.63;1.83;;;9.00;99.90;;;;;;5117946;28;20086;-76
2021/12/01 11:56:03;;;;;;;18.95;1.67;;;9.00;99.90;;;;;;5117791;28;20151;-77
2021/12/01 11:58:41;;;;;;;;;;;9.00;99.90;;;;;;5099809;28;20156;-76
2021/12/01 12:01:22;;;;;;;18.05;1.02;;;9.00;99.90;;;;;;5100451;28;20010;-78
2021/12/01 12:04:10;;;;;;;19.02;1.48;;;9.00;99.90;;;;;;5118433;28;20047;-76
2021/12/01 12:06:52;;;;;;;20.90;1.80;;;9.00;99.90;;;;;;5119151;28;20051;-75
2021/12/01 12:09:20;;;;;;;13.68;1.48;;;9.00;99.90;;;;;;5103463;28;20047;-76
2021/12/01 12:11:52;;;;;;;20.23;2.20;;;9.00;99.90;;;;;;5122491;28;20044;-76
2021/12/01 12:14:22;;;;;;;19.45;1.70;;;9.00;99.90;;;;;;5123813;28;20078;-77
2021/12/01 12:17:05;;;;;;;17.63;1.85;;;9.00;99.90;;;;;;5124059;28;20043;-76
2021/12/01 12:19:44;;;;;;;17.67;2.08;;;8.90;99.90;;;;;;5101987;28;20443;-77
2021/12/01 12:22:39;;;;;;;25.23;1.70;;;9.00;99.90;;;;;;5118489;28;20044;-76
2021/12/01 12:25:08;;;;;;;22.80;1.80;;;9.00;99.90;;;;;;5118682;28;20050;-76
2021/12/01 12:27:42;;;;;;;19.92;1.52;;;9.00;99.90;;;;;;5099383;28;20180;-76
2021/12/01 12:30:28;;;;;;;16.13;1.10;;;9.00;99.90;;;;;;5100950;28;20082;-78
2021/12/01 12:33:18;;;;;;;23.17;1.60;;;9.00;99.90;;;;;;5104723;28;20059;-77
2021/12/01 12:35:46;;;;;;;16.65;1.60;;;9.10;99.90;;;;;;5118625;28;20040;-78
2021/12/01 12:38:12;;;;;;;20.05;2.00;;;9.10;99.90;;;;;;5118362;28;20122;-76
2021/12/01 12:40:39;;;;;;;18.50;1.55;;;9.00;99.90;;;;;;5082694;28;20108;-78
2021/12/01 12:43:07;;;;;;;22.23;1.90;;;9.10;99.90;;;;;;5117279;28;20115;-76
2021/12/01 12:45:33;;;;;;;22.77;1.48;;;9.00;99.90;;;;;;5116308;28;20306;-75
2021/12/01 12:47:59;;;;;;;19.95;2.60;;;9.00;99.90;;;;;;5114637;28;20044;-76
2021/12/01 12:50:25;;;;;;;22.20;1.88;;;8.90;99.90;;;;;;5115190;28;20039;-76
2021/12/01 12:53:10;;;;;;;31.83;1.98;;;8.90;99.90;;;;;;5097066;28;20475;-77
2021/12/01 12:55:39;;;;;;;22.67;2.40;;;8.70;99.90;;;;;;5096220;28;20478;-77
2021/12/01 12:58:08;;;;;;;30.55;1.40;;;8.70;99.90;;;;;;5096946;28;20051;-76
2021/12/01 13:00:53;;;;;;;27.52;2.10;;;8.70;99.90;;;;;;5089961;28;20083;-75